Time;durP1;ratioP1;P1;durP2;ratioP2;P2;SDS_P1;SDS_P2;PMS_P1;PMS_P2;Temp;Humidity;BMP_temperature;BMP_pressure;BME280_temperature;BME280_humidity;BME280_pressure;Samples;Min_cycle;Max_cycle;Signal;HPM_P1;HPM_P2
2022/10/18 00:00:41;;;;;;;17.60;4.28;;;;;;;;;;21007556;28;20197;-67
2022/10/18 00:10:43;;;;;;;13.35;4.32;;;;;;;;;;21005439;28;20052;-67
2022/10/18 00:20:45;;;;;;;13.32;3.38;;;;;;;;;;21004722;28;20052;-66
2022/10/18 00:30:48;;;;;;;12.38;3.42;;;;;;;;;;21004924;28;20075;-67
2022/10/18 00:40:50;;;;;;;13.20;3.40;;;;;;;;;;21002579;28;20057;-69
2022/10/18 00:50:53;;;;;;;13.40;3.22;;;;;;;;;;21002417;28;20477;-68
2022/10/18 01:00:55;;;;;;;14.55;2.90;;;;;;;;;;21001294;28;20048;-68
2022/10/18 01:11:06;;;;;;;13.20;3.65;;;;;;;;;;21000756;28;20049;-67
2022/10/18 01:21:13;;;;;;;10.07;2.88;;;;;;;;;;20999936;28;20049;-66
2022/10/18 01:31:21;;;;;;;11.57;3.03;;;;;;;;;;20998935;28;20190;-62
2022/10/18 01:41:25;;;;;;;11.55;2.80;;;;;;;;;;20997346;28;20132;-62
2022/10/18 01:51:30;;;;;;;11.25;2.97;;;;;;;;;;20997204;28;20052;-63
2022/10/18 02:01:40;;;;;;;12.50;3.08;;;;;;;;;;20996913;28;20182;-64
2022/10/18 02:11:45;;;;;;;9.43;2.65;;;;;;;;;;20995764;28;20461;-64
2022/10/18 02:21:51;;;;;;;11.77;3.28;;;;;;;;;;20995950;28;20401;-64
2022/10/18 02:32:15;;;;;;;10.20;3.60;;;;;;;;;;20995297;28;20052;-63
2022/10/18 02:42:17;;;;;;;14.05;3.28;;;;;;;;;;20994500;28;20055;-63
2022/10/18 02:52:20;;;;;;;13.10;3.35;;;;;;;;;;20994621;28;20052;-65
2022/10/18 03:02:22;;;;;;;13.98;3.53;;;;;;;;;;20999565;28;20389;-67
2022/10/18 03:12:25;;;;;;;8.40;3.15;;;;;;;;;;21010209;28;20067;-69
2022/10/18 03:22:28;;;;;;;12.40;4.00;;;;;;;;;;21008732;28;20045;-63
2022/10/18 03:32:30;;;;;;;11.40;3.45;;;;;;;;;;21009447;28;20048;-67
2022/10/18 03:42:32;;;;;;;11.88;3.42;;;;;;;;;;21007263;28;20044;-65
2022/10/18 03:52:35;;;;;;;15.07;3.97;;;;;;;;;;21006726;28;20063;-67
2022/10/18 04:02:37;;;;;;;10.30;3.58;;;;;;;;;;21006076;28;20064;-67
2022/10/18 04:12:40;;;;;;;10.90;3.38;;;;;;;;;;21005352;28;20110;-64
2022/10/18 04:22:42;;;;;;;11.00;3.45;;;;;;;;;;21005337;28;20413;-64
2022/10/18 04:32:44;;;;;;;8.50;2.95;;;;;;;;;;21005083;28;20101;-69
2022/10/18 04:42:47;;;;;;;9.10;2.97;;;;;;;;;;21003447;28;20065;-64
2022/10/18 04:52:48;;;;;;;13.82;3.60;;;;;;;;;;21002855;28;20051;-68
2022/10/18 05:02:55;;;;;;;12.63;4.05;;;;;;;;;;21001693;28;20558;-67
2022/10/18 05:12:58;;;;;;;12.83;3.80;;;;;;;;;;21000843;28;20087;-63
2022/10/18 05:23:01;;;;;;;13.98;4.00;;;;;;;;;;20999489;28;20584;-68
2022/10/18 05:33:05;;;;;;;14.65;3.28;;;;;;;;;;20998487;28;20048;-67
2022/10/18 05:43:07;;;;;;;18.35;4.03;;;;;;;;;;20997926;28;20127;-68
2022/10/18 05:53:10;;;;;;;16.35;3.90;;;;;;;;;;20997869;28;20080;-69
2022/10/18 06:03:12;;;;;;;11.68;3.72;;;;;;;;;;20994860;28;20056;-63
2022/10/18 06:13:14;;;;;;;18.45;4.53;;;;;;;;;;20996235;28;20095;-63
2022/10/18 06:23:17;;;;;;;11.25;4.25;;;;;;;;;;20997026;28;20063;-65
2022/10/18 06:33:19;;;;;;;14.68;4.53;;;;;;;;;;20995701;28;20048;-64
2022/10/18 06:43:21;;;;;;;14.75;5.20;;;;;;;;;;21010476;28;20131;-63
2022/10/18 06:53:27;;;;;;;20.00;4.95;;;;;;;;;;21012313;28;20055;-68
2022/10/18 07:03:30;;;;;;;15.35;4.90;;;;;;;;;;21013373;28;20048;-64
2022/10/18 07:13:32;;;;;;;21.17;5.15;;;;;;;;;;21012204;28;20094;-65
2022/10/18 07:23:35;;;;;;;31.55;5.65;;;;;;;;;;21010455;28;20402;-64
2022/10/18 07:33:38;;;;;;;22.45;5.70;;;;;;;;;;21008829;28;20053;-68
2022/10/18 07:43:47;;;;;;;15.15;5.43;;;;;;;;;;21007050;28;20048;-67
2022/10/18 07:53:49;;;;;;;20.67;5.70;;;;;;;;;;21006455;28;20052;-68
2022/10/18 08:03:52;;;;;;;21.83;5.22;;;;;;;;;;21005871;28;20052;-66
2022/10/18 08:13:54;;;;;;;25.38;6.43;;;;;;;;;;21004398;28;20044;-65
2022/10/18 08:23:56;;;;;;;19.67;5.50;;;;;;;;;;21004337;28;20044;-64
2022/10/18 08:33:59;;;;;;;15.02;5.78;;;;;;;;;;21003487;28;20051;-65
2022/10/18 08:44:07;;;;;;;19.30;5.90;;;;;;;;;;21003013;28;20052;-64
2022/10/18 08:54:09;;;;;;;25.17;5.82;;;;;;;;;;21002468;28;20454;-65
2022/10/18 09:04:11;;;;;;;11.90;5.47;;;;;;;;;;21000378;28;20056;-62
2022/10/18 09:14:16;;;;;;;13.32;4.57;;;;;;;;;;21000483;28;20044;-65
2022/10/18 09:24:34;;;;;;;13.63;4.57;;;;;;;;;;21000130;28;20416;-63
2022/10/18 09:34:36;;;;;;;16.47;4.43;;;;;;;;;;20996505;28;20060;-65
2022/10/18 09:44:41;;;;;;;19.20;4.20;;;;;;;;;;20996992;28;20064;-63
2022/10/18 09:54:46;;;;;;;15.65;4.43;;;;;;;;;;20997349;28;20519;-63
2022/10/18 10:04:55;;;;;;;15.43;4.43;;;;;;;;;;20979192;28;20102;-64
2022/10/18 10:15:17;;;;;;;16.67;3.90;;;;;;;;;;20995457;28;20044;-64
2022/10/18 10:25:39;;;;;;;15.45;4.38;;;;;;;;;;20994320;28;20048;-64
2022/10/18 10:35:41;;;;;;;8.63;2.97;;;;;;;;;;20995182;28;20056;-63
2022/10/18 10:45:52;;;;;;;21.27;4.22;;;;;;;;;;20992933;28;20110;-64
2022/10/18 10:55:56;;;;;;;12.77;3.53;;;;;;;;;;20994909;28;20048;-65
2022/10/18 11:05:59;;;;;;;18.48;3.70;;;;;;;;;;20993225;28;20136;-64
2022/10/18 11:16:06;;;;;;;21.10;3.78;;;;;;;;;;20992782;28;20044;-64
2022/10/18 11:26:11;;;;;;;17.70;4.00;;;;;;;;;;21002122;28;20122;-63
2022/10/18 11:36:18;;;;;;;23.23;4.75;;;;;;;;;;21008257;28;20424;-64
2022/10/18 11:46:35;;;;;;;13.38;3.63;;;;;;;;;;21006402;28;20489;-64
2022/10/18 11:56:36;;;;;;;17.77;3.73;;;;;;;;;;21007948;28;20053;-64
2022/10/18 12:06:40;;;;;;;24.77;3.55;;;;;;;;;;21006391;28;20090;-63
2022/10/18 12:16:43;;;;;;;18.23;3.42;;;;;;;;;;21006549;28;20064;-63
2022/10/18 12:26:47;;;;;;;17.80;3.72;;;;;;;;;;21004800;28;20504;-62
2022/10/18 12:37:08;;;;;;;22.63;4.82;;;;;;;;;;21002029;28;20060;-64
2022/10/18 12:47:20;;;;;;;15.85;3.40;;;;;;;;;;21002670;28;20059;-64
2022/10/18 12:57:23;;;;;;;19.80;4.13;;;;;;;;;;21004146;28;20048;-64
2022/10/18 13:07:30;;;;;;;17.27;4.00;;;;;;;;;;21000637;28;20061;-64
2022/10/18 13:17:47;;;;;;;15.45;3.90;;;;;;;;;;20999937;28;20044;-65
2022/10/18 13:27:53;;;;;;;20.67;3.00;;;;;;;;;;20999864;28;20048;-63
2022/10/18 13:37:59;;;;;;;19.27;3.40;;;;;;;;;;20997927;28;20094;-64
2022/10/18 13:48:20;;;;;;;22.20;3.40;;;;;;;;;;20996110;28;20063;-64
2022/10/18 13:58:37;;;;;;;18.30;3.38;;;;;;;;;;20996423;28;20056;-63
2022/10/18 14:08:42;;;;;;;12.83;2.60;;;;;;;;;;20997406;28;20057;-63
2022/10/18 14:18:46;;;;;;;13.75;4.00;;;;;;;;;;20997162;28;20301;-64
2022/10/18 14:29:15;;;;;;;17.27;4.32;;;;;;;;;;20995990;28;20052;-64
2022/10/18 14:39:21;;;;;;;20.33;3.55;;;;;;;;;;20986185;28;20052;-65
2022/10/18 14:49:23;;;;;;;22.10;5.67;;;;;;;;;;20964658;28;20485;-63
2022/10/18 14:59:30;;;;;;;19.85;4.55;;;;;;;;;;20995774;28;20048;-71
2022/10/18 15:09:34;;;;;;;18.42;3.60;;;;;;;;;;21006741;28;20049;-67
2022/10/18 15:19:41;;;;;;;15.48;3.45;;;;;;;;;;21005798;28;20105;-66
2022/10/18 15:29:43;;;;;;;11.70;3.20;;;;;;;;;;21001978;28;20084;-70
2022/10/18 15:39:46;;;;;;;20.55;5.55;;;;;;;;;;21002119;28;20470;-74
2022/10/18 15:49:49;;;;;;;20.63;5.03;;;;;;;;;;21005199;28;20506;-69
2022/10/18 15:59:53;;;;;;;23.17;4.38;;;;;;;;;;20997906;28;20076;-73
2022/10/18 16:09:54;;;;;;;17.10;3.50;;;;;;;;;;20993184;28;20542;-63
2022/10/18 16:19:56;;;;;;;16.17;4.38;;;;;;;;;;20996908;28;20064;-63
2022/10/18 16:29:58;;;;;;;17.27;4.55;;;;;;;;;;20997171;28;20052;-65
2022/10/18 16:40:00;;;;;;;18.77;4.68;;;;;;;;;;20999098;28;20059;-65
2022/10/18 16:50:06;;;;;;;18.90;4.30;;;;;;;;;;21078061;28;20055;-63
2022/10/18 17:00:17;;;;;;;24.13;6.73;;;;;;;;;;21081143;28;20040;-61
2022/10/18 17:10:20;;;;;;;36.33;17.17;;;;;;;;;;21075369;28;20135;-70
2022/10/18 17:20:25;;;;;;;27.17;6.97;;;;;;;;;;20985482;28;20080;-65
2022/10/18 17:30:27;;;;;;;19.35;4.78;;;;;;;;;;20993031;28;20048;-69
2022/10/18 17:40:29;;;;;;;19.55;5.45;;;;;;;;;;20984134;28;20061;-65
2022/10/18 17:50:32;;;;;;;16.85;6.38;;;;;;;;;;20902686;28;20068;-70
2022/10/18 18:00:34;;;;;;;20.65;6.13;;;;;;;;;;20907245;28;20044;-65
2022/10/18 18:10:36;;;;;;;23.77;9.82;;;;;;;;;;20989421;28;20143;-70
2022/10/18 18:20:38;;;;;;;19.00;7.90;;;;;;;;;;20979050;28;20412;-68
2022/10/18 18:30:40;;;;;;;23.00;7.68;;;;;;;;;;20996842;28;20466;-70
2022/10/18 18:40:42;;;;;;;26.48;8.57;;;;;;;;;;20995224;28;20127;-63
2022/10/18 18:50:50;;;;;;;29.40;9.02;;;;;;;;;;20996386;28;20087;-61
2022/10/18 19:00:52;;;;;;;25.45;6.88;;;;;;;;;;20995376;28;20049;-62
2022/10/18 19:10:53;;;;;;;19.80;7.40;;;;;;;;;;20976267;28;20059;-69
2022/10/18 19:20:56;;;;;;;27.08;8.13;;;;;;;;;;20993646;28;20131;-70
2022/10/18 19:30:57;;;;;;;26.27;9.07;;;;;;;;;;20944818;28;20057;-61
2022/10/18 19:40:59;;;;;;;23.55;7.05;;;;;;;;;;20931992;28;20112;-62
2022/10/18 19:51:05;;;;;;;28.02;9.23;;;;;;;;;;21089747;28;20083;-62
2022/10/18 20:01:07;;;;;;;30.63;9.00;;;;;;;;;;21089784;28;20056;-62
2022/10/18 20:11:11;;;;;;;31.30;11.68;;;;;;;;;;21089916;28;20048;-62
2022/10/18 20:21:14;;;;;;;34.05;10.93;;;;;;;;;;21070539;28;20453;-71
2022/10/18 20:31:17;;;;;;;34.83;12.32;;;;;;;;;;21088776;28;20388;-61
2022/10/18 20:41:24;;;;;;;32.25;9.27;;;;;;;;;;21086567;28;20491;-71
2022/10/18 20:51:26;;;;;;;31.23;11.30;;;;;;;;;;21087474;28;20135;-70
2022/10/18 21:01:29;;;;;;;24.98;8.57;;;;;;;;;;21084914;28;20052;-62
2022/10/18 21:11:34;;;;;;;21.42;6.88;;;;;;;;;;21086473;28;20048;-63
2022/10/18 21:21:53;;;;;;;15.45;5.95;;;;;;;;;;21079224;28;20040;-62
2022/10/18 21:32:09;;;;;;;19.77;5.00;;;;;;;;;;21064270;28;20044;-63
2022/10/18 21:42:25;;;;;;;17.40;4.68;;;;;;;;;;21081022;28;20051;-63
2022/10/18 21:52:27;;;;;;;15.00;4.95;;;;;;;;;;21083822;28;20056;-63
2022/10/18 22:02:29;;;;;;;21.23;4.88;;;;;;;;;;21083191;28;20123;-64
2022/10/18 22:12:31;;;;;;;21.35;4.68;;;;;;;;;;21081974;28;20059;-66
2022/10/18 22:22:33;;;;;;;14.05;4.82;;;;;;;;;;21081824;28;20044;-71
2022/10/18 22:32:35;;;;;;;18.40;4.72;;;;;;;;;;21079625;28;20500;-70
2022/10/18 22:42:37;;;;;;;24.70;4.97;;;;;;;;;;21080309;28;20048;-70
2022/10/18 22:52:39;;;;;;;22.63;4.85;;;;;;;;;;21078696;28;20479;-61
2022/10/18 23:02:41;;;;;;;18.90;4.80;;;;;;;;;;21078425;28;20052;-62
2022/10/18 23:12:43;;;;;;;19.95;4.90;;;;;;;;;;21077971;28;20071;-62
2022/10/18 23:22:45;;;;;;;22.77;6.25;;;;;;;;;;21088142;28;20502;-67
2022/10/18 23:32:47;;;;;;;21.23;6.07;;;;;;;;;;21074374;28;20109;-64
2022/10/18 23:42:49;;;;;;;21.25;5.00;;;;;;;;;;21092183;28;20431;-71
2022/10/18 23:52:51;;;;;;;17.10;4.90;;;;;;;;;;21091268;28;20139;-67
